No Warnings, Watches, or Advisories

Active alerts


No alerts

Amazon Weather

Hours of Daylight

13 hrs 40 min 33 sec
of Daylight Today
56.9% Day 43.1% Night Which is
2 min 29 sec Longer
Than Yesterday

South Webcam more information South Webcam


South West Webcam more information South West Webcam


You find our weather info also at:

UK Metoffice

Weather Underground

Mid-Atlantic Weather Network

WeatherlinkIP

Citizen Weather Observer Program (CWOP)

HAMweather, WeatherForYou, PWS Weather



Nearby METAR Reports

   
KDUJ - Du Bois, Pennsylvania, USA
Distance from station: NNE 16 mi
Updated: Apr 23 2019 3:53 pm
Light Rain, Overcast  
Light Rain, Overcast  
   Wind: South 4.6 mph
Wind: South 4.6 mph
Temperature: 59°F
Dew Point: 51.8°F
Humidity: 77%
Barometer: 29.83 inHg
Clouds: Overcast
Visibility: 9 mi
Cloud details: Mostly Cloudy 6000 ft,
Overcast 7000 ft
KDUJ 231953Z AUTO 19004KT 9SM -RA BKN060 OVC070 15/11 A2983 RMK AO2 RAE1857B02 TSB1854E09 SLP100 P0016 T01500111
KIDI - Indiana/Stewart, Pennsylvania, USA
Distance from station: SSW 23 mi
Updated: Apr 23 2019 4:15 pm
Overcast  
Overcast  
   Wind: West 3.5 mph
Wind: West 3.5 mph
Temperature: 64.4°F
Dew Point: 57.2°F
Humidity: 78%
Barometer: 29.88 inHg
Clouds: Overcast
Visibility: 9 mi
Cloud details: Mostly Cloudy 7000 ft,
Overcast 8500 ft
KIDI 232015Z AUTO 26003KT 9SM BKN070 OVC085 18/14 A2988 RMK A01
KFIG - Clearfield, Pennsylvania, USA
Distance from station: ENE 31 mi
Updated: Apr 23 2019 3:54 pm
Light Rain, Overcast  
Light Rain, Overcast  
   Wind: SSW 4.6 mph
Wind: SSW 4.6 mph
Temperature: 62.6°F
Dew Point: 55.4°F
Humidity: 77%
Barometer: 29.84 inHg
Clouds: Overcast
Visibility: 9 mi
Cloud details: Overcast 8000 ft
KFIG 231954Z AUTO 20004KT 9SM -RA OVC080 17/13 A2984 RMK AO2 LTG DSNT SE AND S TSB20E35 SLP105 P0005 T01670128
KJST - Johnstown, Pennsylvania, USA
Distance from station: S 44 mi
Updated: Apr 23 2019 3:54 pm
Light Rain, Overcast  
Light Rain, Overcast  
   Wind: WSW 15 mph<br />Gust to 15 mph
Wind: WSW 15 mph
Gust to 15 mph
Temperature: 73.4°F
Dew Point: 42.8°F
Humidity: 33%
Barometer: 29.85 inHg
Clouds: Overcast
Visibility: 10 mi
Cloud details: Mostly Cloudy 7500 ft,
Overcast 10000 ft
KJST 231954Z AUTO 25013G25KT 10SM -RA BKN075 OVC100 23/06 A2985 RMK AO2 PK WND 23031/1941 LTG DSNT W-NE RAB48 SLP100 P0000 T02280056
KPIT - Pittsburgh, Pennsylvania, USA
Distance from station: WSW 74 mi
Updated: Apr 23 2019 3:51 pm
Overcast  
Overcast  
   Wind: SW 12.7 mph
Wind: SW 12.7 mph
Temperature: 66.2°F
Dew Point: 57.2°F
Humidity: 73%
Barometer: 29.84 inHg
Clouds: Overcast
Visibility: 10 mi
Cloud details: Mostly Cloudy 4400 ft,
Mostly Cloudy 5500 ft,
Overcast 7000 ft
KPIT 231951Z 23011KT 10SM BKN044 BKN055 OVC070 19/14 A2984 RMK AO2 RAE27 TSE1858 SLP110 P0002 T01940139
KLBE - Latrobe/Westmorl, Pennsylvania, USA
Distance from station: SSW 52 mi
Updated: Apr 23 2019 3:50 pm
Mostly Cloudy  
Mostly Cloudy  
   Wind: SW 17.3 mph<br />Gust to 17.3 mph
Wind: SW 17.3 mph
Gust to 17.3 mph
Temperature: 75.2°F
Dew Point: 50°F
Humidity: 41%
Barometer: 29.84 inHg
Clouds: Mostly Cloudy
Visibility: 10 mi
Cloud details: Partly Cloudy 3600 ft,
Mostly Cloudy 7000 ft
KLBE 231950Z 23015G25KT 10SM SCT036 BKN070 24/10 A2984
KBTP - Butler Co., Pennsylvania, USA
Distance from station: WSW 52 mi
Updated: Apr 23 2019 3:56 pm
Overcast  
Overcast  
   Wind: SW 12.7 mph<br />Gust to 12.7 mph
Wind: SW 12.7 mph
Gust to 12.7 mph
Temperature: 66.2°F
Dew Point: 55.4°F
Humidity: 68%
Barometer: 29.84 inHg
Clouds: Overcast
Visibility: 10 mi
Cloud details: Overcast 4500 ft
KBTP 231956Z AUTO 23011G16KT 10SM OVC045 19/13 A2984 RMK AO2 RAE1858 SLP107 T01940128 PNO $
KUCP - New Castle Muni, Pennsylvania, USA
Distance from station: W 75 mi
Updated: Apr 23 2019 3:56 pm
Mostly Cloudy  
Mostly Cloudy  
   Wind: WSW 18.4 mph<br />Gust to 18.4 mph
Wind: WSW 18.4 mph
Gust to 18.4 mph
Temperature: 73.4°F
Dew Point: 55.4°F
Humidity: 53%
Barometer: 29.82 inHg
Clouds: Mostly Cloudy
Visibility: 10 mi
Cloud details: Partly Cloudy 4500 ft,
Mostly Cloudy 6000 ft
KUCP 231956Z AUTO 25016G21KT 10SM SCT045 BKN060 23/13 A2982 RMK AO2 SLP109 T02280133
KFKL - Franklin, Pennsylvania, USA
Distance from station: WNW 54 mi
Updated: Apr 23 2019 3:56 pm
Overcast  
Overcast  
   Wind: WSW 13.8 mph<br />Gust to 13.8 mph
Wind: WSW 13.8 mph
Gust to 13.8 mph
Temperature: 66.2°F
Dew Point: 53.6°F
Humidity: 64%
Barometer: 29.81 inHg
Clouds: Overcast
Visibility: 10 mi
Cloud details: Partly Cloudy 4100 ft,
Overcast 4700 ft
KFKL 231956Z AUTO 25012G16KT 10SM SCT041 OVC047 19/12 A2981 RMK AO2 SLP094 T01940122
KAOO - Altoona, Pennsylvania, USA
Distance from station: SE 57 mi
Updated: Apr 23 2019 3:53 pm
Mostly Cloudy  
Mostly Cloudy  
   Wind: SSW 16.1 mph<br />Gust to 16.1 mph
Wind: SSW 16.1 mph
Gust to 16.1 mph
Temperature: 75.2°F
Dew Point: 44.6°F
Humidity: 34%
Barometer: 29.82 inHg
Clouds: Mostly Cloudy
Visibility: 10 mi
Cloud details: Mostly Cloudy 10000 ft
KAOO 231953Z AUTO 21014G21KT 10SM BKN100 24/07 A2982 RMK AO2 LTG DSNT N AND NW SLP092 T02390072
KUNV - State College, Pennsylvania, USA
Distance from station: E 61 mi
Updated: Apr 23 2019 4:05 pm
Light Rain, Overcast  
Light Rain, Overcast  
   Wind: Calm
Wind: Calm
Temperature: 66.2°F
Dew Point: 53.6°F
Humidity: 64%
Barometer: 29.84 inHg
Clouds: Overcast
Visibility: 10 mi
Cloud details: Partly Cloudy 4200 ft,
Mostly Cloudy 6500 ft,
Overcast 8500 ft
KUNV 232005Z 00000KT 10SM -RA SCT042 BKN065 OVC085 19/12 A2984 RMK TSE2005
KBFD - Bradford, Pennsylvania, USA
Distance from station: NNE 62 mi
Updated: Apr 23 2019 3:53 pm
Overcast  
Overcast  
   Wind: South 4.6 mph
Wind: South 4.6 mph
Temperature: 57.2°F
Dew Point: 51.8°F
Humidity: 82%
Barometer: 29.82 inHg
Clouds: Overcast
Visibility: 10 mi
Cloud details: Overcast 5000 ft
KBFD 231953Z AUTO 18004KT 10SM OVC050 14/11 A2982 RMK AO2 RAE53 SLP098 P0004 T01390106

Script developed by  Saratoga-weather.org Adapted for the template by  Weerstation Leuven

Equipment we use:

Weather-station
Davis VP2

Weather-program
Cumulus

Weather-server
Dell Inspiron 3521

Provider
Host On A Rope

Davis VP2

Cumulus

Dell Inspiron 3521

Host On A Rope